createdAt,value
2023-03-29T00:01:00.472Z,66.63
2023-03-29T00:03:28.988Z,66.91
2023-03-29T00:06:03.818Z,67.68
2023-03-29T00:08:40.286Z,67.52
2023-03-29T00:11:07.890Z,67.43
2023-03-29T00:13:35.297Z,66.96
2023-03-29T00:16:02.696Z,66.65
2023-03-29T00:18:29.476Z,67.03
2023-03-29T00:20:57.632Z,66.36
2023-03-29T00:23:25.502Z,66.35
2023-03-29T00:25:56.420Z,66.28
2023-03-29T00:28:23.788Z,66.23
2023-03-29T00:30:53.472Z,66.27
2023-03-29T00:33:21.150Z,66.70
2023-03-29T00:35:48.878Z,67.09
2023-03-29T00:38:18.614Z,66.72
2023-03-29T00:40:47.092Z,66.75
2023-03-29T00:43:17.529Z,66.57
2023-03-29T00:45:44.619Z,67.50
2023-03-29T00:48:16.004Z,67.28
2023-03-29T00:50:59.969Z,66.97
2023-03-29T00:53:39.728Z,66.76
2023-03-29T00:56:14.313Z,66.00
2023-03-29T00:59:10.198Z,66.47
2023-03-29T01:01:45.779Z,66.23
2023-03-29T01:04:42.887Z,66.53
2023-03-29T01:07:18.623Z,66.95
2023-03-29T01:09:51.062Z,67.02
2023-03-29T01:12:24.255Z,66.44
2023-03-29T01:15:02.254Z,66.48
2023-03-29T01:17:31.894Z,65.68
2023-03-29T01:20:10.685Z,65.47
2023-03-29T01:23:01.010Z,65.73
2023-03-29T01:25:36.999Z,66.28
2023-03-29T01:28:12.058Z,66.81
2023-03-29T01:31:02.011Z,65.85
2023-03-29T01:33:34.500Z,65.39
2023-03-29T01:36:11.904Z,64.96
2023-03-29T01:39:07.291Z,64.04
2023-03-29T01:41:57.445Z,64.60
2023-03-29T01:44:42.760Z,65.14
2023-03-29T01:47:31.877Z,65.31
2023-03-29T01:50:16.425Z,65.17
2023-03-29T01:52:47.121Z,65.73
2023-03-29T01:55:20.310Z,66.05
2023-03-29T01:57:48.682Z,66.17
2023-03-29T02:00:24.781Z,66.06
2023-03-29T02:02:55.486Z,67.00
2023-03-29T02:05:24.714Z,66.67
2023-03-29T02:07:53.026Z,66.47
2023-03-29T02:10:22.044Z,65.94
2023-03-29T02:12:49.674Z,65.39
2023-03-29T02:15:19.281Z,64.92
2023-03-29T02:17:47.802Z,64.70
2023-03-29T02:20:24.631Z,64.97
2023-03-29T02:23:21.404Z,65.62
2023-03-29T02:25:57.157Z,66.57
2023-03-29T02:28:25.769Z,67.65
2023-03-29T02:31:21.730Z,68.62
2023-03-29T02:33:48.784Z,69.44
2023-03-29T02:36:25.088Z,69.27
2023-03-29T02:38:54.376Z,69.44
2023-03-29T02:41:23.910Z,69.56
2023-03-29T02:43:51.647Z,69.24
2023-03-29T02:46:19.777Z,69.07
2023-03-29T02:48:50.563Z,68.38
2023-03-29T02:51:25.122Z,68.04
2023-03-29T02:54:16.426Z,67.33
2023-03-29T02:56:46.113Z,67.08
2023-03-29T02:59:14.283Z,67.04
2023-03-29T03:01:44.218Z,67.28
2023-03-29T03:04:12.466Z,67.03
2023-03-29T03:06:42.113Z,66.57
2023-03-29T03:09:10.027Z,66.94
2023-03-29T03:11:36.802Z,67.59
2023-03-29T03:14:03.686Z,66.99
2023-03-29T03:16:30.449Z,66.99
2023-03-29T03:18:57.363Z,67.20
2023-03-29T03:21:24.663Z,66.29
2023-03-29T03:23:52.853Z,66.25
2023-03-29T03:26:21.653Z,66.44
2023-03-29T03:28:48.652Z,66.45
2023-03-29T03:31:15.698Z,66.91
2023-03-29T03:33:46.557Z,66.98
2023-03-29T03:36:14.215Z,66.87
2023-03-29T03:38:44.283Z,66.42
2023-03-29T03:41:11.203Z,66.09
2023-03-29T03:43:38.358Z,66.08
2023-03-29T03:46:05.627Z,66.09
2023-03-29T03:48:32.584Z,66.69
2023-03-29T03:50:59.345Z,66.99
2023-03-29T03:53:27.552Z,68.11
2023-03-29T03:55:58.293Z,68.90
2023-03-29T03:58:25.151Z,68.74
2023-03-29T04:00:52.137Z,67.96
2023-03-29T04:03:19.227Z,67.13
2023-03-29T04:05:47.262Z,66.86
2023-03-29T04:08:15.107Z,66.26
2023-03-29T04:10:42.210Z,65.70
2023-03-29T04:13:09.321Z,65.52
2023-03-29T04:15:39.018Z,65.08
2023-03-29T04:18:07.624Z,65.33
2023-03-29T04:20:35.327Z,65.54
2023-03-29T04:23:02.602Z,66.68
2023-03-29T04:25:30.028Z,67.21
2023-03-29T04:27:56.994Z,67.04
2023-03-29T04:30:24.775Z,67.20
2023-03-29T04:32:52.184Z,66.63
2023-03-29T04:35:19.280Z,65.72
2023-03-29T04:37:46.214Z,64.52
2023-03-29T04:40:14.670Z,63.69
2023-03-29T04:42:46.037Z,64.18
2023-03-29T04:45:14.152Z,63.38
2023-03-29T04:47:42.204Z,63.11
2023-03-29T04:50:09.719Z,62.56
2023-03-29T04:52:36.702Z,61.91
2023-03-29T04:55:05.313Z,62.39
2023-03-29T04:57:35.793Z,62.70
2023-03-29T05:00:08.485Z,62.26
2023-03-29T05:02:35.584Z,62.51
2023-03-29T05:05:02.599Z,62.11
2023-03-29T05:07:29.918Z,61.73
2023-03-29T05:09:57.063Z,61.34
2023-03-29T05:12:24.130Z,61.87
2023-03-29T05:14:51.183Z,62.14
2023-03-29T05:17:18.106Z,62.63
2023-03-29T05:19:44.960Z,62.17
2023-03-29T05:22:11.791Z,61.66
2023-03-29T05:24:40.469Z,61.79
2023-03-29T05:27:08.353Z,61.93
2023-03-29T05:29:35.214Z,62.30
2023-03-29T05:32:02.512Z,61.93
2023-03-29T05:34:31.533Z,61.55
2023-03-29T05:36:59.654Z,60.69
2023-03-29T05:39:26.709Z,60.79
2023-03-29T05:41:55.025Z,61.49
2023-03-29T05:44:22.038Z,61.27
2023-03-29T05:46:50.872Z,61.04
2023-03-29T05:49:18.108Z,60.36
2023-03-29T05:51:47.717Z,60.26
2023-03-29T05:54:16.015Z,60.14
2023-03-29T05:56:42.911Z,59.39
2023-03-29T05:59:09.917Z,58.86
2023-03-29T06:01:37.986Z,58.20
2023-03-29T06:04:06.627Z,56.33
2023-03-29T06:06:35.980Z,54.84
2023-03-29T06:09:03.228Z,54.44
2023-03-29T06:11:31.764Z,53.94
2023-03-29T06:13:59.318Z,53.64
2023-03-29T06:16:26.272Z,54.10
2023-03-29T06:18:53.463Z,53.06
2023-03-29T06:21:22.440Z,53.11
2023-03-29T06:23:50.470Z,52.32
2023-03-29T06:26:17.978Z,50.80
2023-03-29T06:28:45.661Z,50.52
2023-03-29T06:31:13.501Z,50.47
2023-03-29T06:33:43.240Z,50.54
2023-03-29T06:36:12.152Z,49.63
2023-03-29T06:38:39.927Z,49.86
2023-03-29T06:41:08.733Z,48.32
2023-03-29T06:43:35.605Z,47.89
2023-03-29T06:46:02.783Z,46.57
2023-03-29T06:48:30.247Z,46.77
2023-03-29T06:50:57.174Z,47.21
2023-03-29T06:53:24.045Z,47.41
2023-03-29T06:55:52.306Z,47.27
2023-03-29T06:58:19.856Z,47.81
2023-03-29T07:00:46.881Z,47.07
2023-03-29T07:03:20.265Z,46.84
2023-03-29T07:05:47.977Z,46.88
2023-03-29T07:08:16.613Z,45.38
2023-03-29T07:10:49.088Z,45.53
2023-03-29T07:13:15.913Z,45.90
2023-03-29T07:15:43.993Z,46.30
2023-03-29T07:18:12.852Z,47.72
2023-03-29T07:20:41.923Z,47.01
2023-03-29T07:23:11.489Z,46.24
2023-03-29T07:25:39.613Z,45.33
2023-03-29T07:28:07.778Z,44.91
2023-03-29T07:30:34.718Z,44.77
2023-03-29T07:33:01.617Z,44.72
2023-03-29T07:35:29.236Z,43.90
2023-03-29T07:37:56.615Z,42.41
2023-03-29T07:40:24.454Z,42.72
2023-03-29T07:42:55.557Z,43.56
2023-03-29T07:45:26.928Z,43.82
2023-03-29T07:47:59.738Z,43.73
2023-03-29T07:50:27.785Z,44.90
2023-03-29T07:52:55.246Z,42.88
2023-03-29T07:55:22.351Z,42.18
2023-03-29T07:57:49.803Z,40.74
2023-03-29T08:00:17.639Z,42.14
2023-03-29T08:02:46.049Z,41.29
2023-03-29T08:05:17.536Z,42.21
2023-03-29T08:07:47.959Z,43.16
2023-03-29T08:10:18.191Z,41.05
2023-03-29T08:12:46.689Z,40.00
2023-03-29T08:15:14.471Z,39.83
2023-03-29T08:17:41.951Z,40.92
2023-03-29T08:20:12.360Z,39.83
2023-03-29T08:22:39.538Z,39.96
2023-03-29T08:25:07.475Z,39.69
2023-03-29T08:27:34.946Z,38.70
2023-03-29T08:30:01.745Z,37.89
2023-03-29T08:32:28.759Z,36.56
2023-03-29T08:34:55.793Z,35.72
2023-03-29T08:37:24.692Z,36.21
2023-03-29T08:39:51.832Z,37.28
2023-03-29T08:42:41.145Z,37.36
2023-03-29T08:45:23.071Z,36.89
2023-03-29T08:48:17.524Z,35.17
2023-03-29T08:50:49.506Z,34.18
2023-03-29T08:53:29.686Z,33.60
2023-03-29T08:55:59.853Z,34.27
2023-03-29T08:58:32.573Z,33.58
2023-03-29T09:01:06.258Z,33.31
2023-03-29T09:04:00.227Z,30.97
2023-03-29T09:06:27.088Z,31.95
2023-03-29T09:08:53.902Z,31.44
2023-03-29T09:11:20.834Z,30.65
2023-03-29T09:14:15.027Z,31.31
2023-03-29T09:17:11.775Z,27.99
2023-03-29T09:20:21.904Z,27.20
2023-03-29T09:23:22.376Z,27.67
2023-03-29T09:26:16.205Z,26.48
2023-03-29T09:29:04.967Z,26.68
2023-03-29T09:31:42.801Z,25.89
2023-03-29T09:34:15.954Z,25.93
2023-03-29T09:37:12.062Z,27.41
2023-03-29T09:39:41.131Z,28.02
2023-03-29T09:42:10.451Z,28.31
2023-03-29T09:44:44.303Z,26.23
2023-03-29T09:47:23.790Z,26.73
2023-03-29T09:49:55.333Z,28.14
2023-03-29T09:52:22.471Z,28.18
2023-03-29T09:54:49.783Z,29.09
2023-03-29T09:57:18.044Z,28.41
2023-03-29T09:59:47.003Z,30.15
2023-03-29T10:02:14.718Z,30.94
2023-03-29T10:04:43.325Z,30.34
2023-03-29T10:07:18.209Z,30.48
2023-03-29T10:09:48.290Z,31.12
2023-03-29T10:12:16.959Z,31.13
2023-03-29T10:14:48.638Z,31.76
2023-03-29T10:17:23.101Z,31.70
2023-03-29T10:19:49.905Z,31.32
2023-03-29T10:22:22.036Z,31.84
2023-03-29T10:24:53.964Z,31.90
2023-03-29T10:27:24.456Z,31.17
2023-03-29T10:29:52.277Z,31.95
2023-03-29T10:32:34.685Z,32.01
2023-03-29T10:35:21.631Z,31.56
2023-03-29T10:37:55.368Z,31.93
2023-03-29T10:40:30.958Z,32.15
2023-03-29T10:43:27.171Z,31.67
2023-03-29T10:45:57.133Z,31.68
2023-03-29T10:48:29.966Z,31.14
2023-03-29T10:51:02.316Z,31.12
2023-03-29T10:53:35.203Z,31.99
2023-03-29T10:56:30.756Z,32.65
2023-03-29T10:59:23.473Z,32.40
2023-03-29T11:02:02.851Z,32.69
2023-03-29T11:05:00.302Z,32.34
2023-03-29T11:07:48.809Z,32.17
2023-03-29T11:10:32.670Z,32.96
2023-03-29T11:13:06.120Z,31.27
2023-03-29T11:15:43.953Z,31.91
2023-03-29T11:18:37.942Z,31.22
2023-03-29T11:21:11.753Z,32.83
2023-03-29T11:24:16.995Z,31.80
2023-03-29T11:26:59.961Z,32.63
2023-03-29T11:30:12.431Z,32.79
2023-03-29T11:33:09.481Z,31.86
2023-03-29T11:35:47.137Z,31.79
2023-03-29T11:38:20.372Z,33.00
2023-03-29T11:41:18.848Z,33.29
2023-03-29T11:43:54.147Z,33.25
2023-03-29T11:46:30.541Z,33.05
2023-03-29T11:49:21.633Z,32.47
2023-03-29T11:51:52.207Z,33.75
2023-03-29T11:54:51.893Z,33.38
2023-03-29T11:57:31.174Z,33.52
2023-03-29T12:00:14.785Z,34.57
2023-03-29T12:02:55.350Z,33.19
2023-03-29T12:05:31.684Z,32.95
2023-03-29T12:08:08.614Z,33.26
2023-03-29T12:10:42.073Z,34.09
2023-03-29T12:13:21.149Z,33.94
2023-03-29T12:15:57.437Z,34.37
2023-03-29T12:18:33.431Z,34.48
2023-03-29T12:21:04.852Z,33.99
2023-03-29T12:23:34.056Z,34.25
2023-03-29T12:26:23.181Z,33.91
2023-03-29T12:29:27.638Z,34.48
2023-03-29T12:32:12.751Z,33.46
2023-03-29T12:34:59.942Z,33.26
2023-03-29T12:37:32.365Z,32.73
2023-03-29T12:40:21.652Z,33.81
2023-03-29T12:42:54.374Z,33.89
2023-03-29T12:45:38.163Z,32.93
2023-03-29T12:48:06.715Z,33.63
2023-03-29T12:50:46.198Z,33.45
2023-03-29T12:53:13.170Z,33.70
2023-03-29T12:55:42.746Z,33.57
2023-03-29T12:58:40.257Z,33.67
2023-03-29T13:01:25.160Z,33.96
2023-03-29T13:04:10.599Z,33.64
2023-03-29T13:06:47.472Z,33.78
2023-03-29T13:09:38.068Z,34.86
2023-03-29T13:12:10.876Z,35.74
2023-03-29T13:14:46.435Z,35.46
2023-03-29T13:17:45.219Z,34.40
2023-03-29T13:20:31.916Z,34.73
2023-03-29T13:23:05.313Z,35.01
2023-03-29T13:26:09.853Z,35.05
2023-03-29T13:29:07.386Z,36.22
2023-03-29T13:32:07.838Z,36.18
2023-03-29T13:34:53.577Z,35.67
2023-03-29T13:37:29.977Z,35.19
2023-03-29T13:39:57.738Z,34.80
2023-03-29T13:42:37.758Z,34.37
2023-03-29T13:45:14.049Z,33.20
2023-03-29T13:47:54.850Z,32.06
2023-03-29T13:50:39.046Z,30.18
2023-03-29T13:53:29.372Z,31.24
2023-03-29T13:55:59.613Z,30.97
2023-03-29T13:58:35.895Z,30.88
2023-03-29T14:01:28.431Z,31.41
2023-03-29T14:03:57.007Z,32.24
2023-03-29T14:06:29.416Z,33.44
2023-03-29T14:08:57.638Z,34.81
2023-03-29T14:11:30.974Z,35.08
2023-03-29T14:14:02.953Z,34.16
2023-03-29T14:16:33.395Z,34.04
2023-03-29T14:19:13.616Z,34.39
2023-03-29T14:21:43.741Z,33.94
2023-03-29T14:24:16.813Z,32.05
2023-03-29T14:26:47.268Z,31.01
2023-03-29T14:29:14.838Z,32.35
2023-03-29T14:31:42.898Z,32.40
2023-03-29T14:34:16.946Z,32.40
2023-03-29T14:36:48.925Z,31.71
2023-03-29T14:39:23.437Z,32.00
2023-03-29T14:41:53.570Z,32.00
2023-03-29T14:44:22.909Z,32.36
2023-03-29T14:46:49.740Z,32.09
2023-03-29T14:49:19.793Z,31.59
2023-03-29T14:51:49.298Z,31.33
2023-03-29T14:54:29.810Z,31.20
2023-03-29T14:56:58.184Z,32.70
2023-03-29T14:59:36.735Z,32.40
2023-03-29T15:02:04.345Z,32.78
2023-03-29T15:04:37.550Z,32.40
2023-03-29T15:07:05.445Z,32.64
2023-03-29T15:09:34.885Z,33.11
2023-03-29T15:12:04.481Z,33.96
2023-03-29T15:14:38.253Z,33.75
2023-03-29T15:17:22.399Z,34.10
2023-03-29T15:20:25.401Z,34.42
2023-03-29T15:22:58.918Z,35.10
2023-03-29T15:25:33.011Z,35.22
2023-03-29T15:28:02.066Z,35.44
2023-03-29T15:30:36.250Z,34.62
2023-03-29T15:33:20.147Z,35.49
2023-03-29T15:35:51.374Z,35.91
2023-03-29T15:38:25.431Z,35.90
2023-03-29T15:41:04.343Z,35.67
2023-03-29T15:43:33.042Z,37.00
2023-03-29T15:46:00.330Z,37.06
2023-03-29T15:48:30.044Z,36.92
2023-03-29T15:51:00.808Z,36.83
2023-03-29T15:53:29.993Z,36.30
2023-03-29T15:56:02.840Z,36.03
2023-03-29T15:58:32.873Z,36.06
2023-03-29T16:01:34.354Z,35.88
2023-03-29T16:04:05.503Z,35.92
2023-03-29T16:06:34.029Z,35.65
2023-03-29T16:09:05.274Z,35.70
2023-03-29T16:11:32.223Z,35.97
2023-03-29T16:14:00.211Z,36.40
2023-03-29T16:16:27.438Z,36.15
2023-03-29T16:18:57.986Z,35.53
2023-03-29T16:21:27.291Z,35.88
2023-03-29T16:23:54.285Z,35.48
2023-03-29T16:26:22.506Z,35.25
2023-03-29T16:28:50.168Z,35.09
2023-03-29T16:31:18.805Z,35.16
2023-03-29T16:33:46.754Z,35.42
2023-03-29T16:36:15.301Z,35.49
2023-03-29T16:38:42.469Z,35.86
2023-03-29T16:41:15.009Z,35.83
2023-03-29T16:43:43.280Z,36.41
2023-03-29T16:46:11.381Z,35.82
2023-03-29T16:48:39.595Z,35.15
2023-03-29T16:51:07.199Z,35.30
2023-03-29T16:53:35.926Z,35.31
2023-03-29T16:56:04.892Z,35.07
2023-03-29T16:58:32.426Z,35.08
2023-03-29T17:01:10.970Z,35.15
2023-03-29T17:03:39.883Z,34.33
2023-03-29T17:06:08.169Z,33.98
2023-03-29T17:08:35.429Z,34.21
2023-03-29T17:11:03.545Z,34.64
2023-03-29T17:13:34.530Z,34.54
2023-03-29T17:16:02.645Z,35.18
2023-03-29T17:18:31.007Z,35.40
2023-03-29T17:21:00.214Z,35.55
2023-03-29T17:23:29.440Z,35.46
2023-03-29T17:25:58.431Z,35.65
2023-03-29T17:28:27.126Z,35.63
2023-03-29T17:30:56.017Z,35.44
2023-03-29T17:33:26.443Z,34.92
2023-03-29T17:35:53.645Z,34.50
2023-03-29T17:38:21.662Z,34.87
2023-03-29T17:40:53.771Z,34.52
2023-03-29T17:43:21.191Z,34.47
2023-03-29T17:45:53.478Z,34.22
2023-03-29T17:48:21.734Z,34.03
2023-03-29T17:50:49.653Z,34.23
2023-03-29T17:53:17.671Z,34.13
2023-03-29T17:55:46.389Z,34.18
2023-03-29T17:58:15.027Z,33.73
2023-03-29T18:00:43.950Z,34.16
2023-03-29T18:03:13.290Z,34.50
2023-03-29T18:05:42.108Z,33.86
2023-03-29T18:08:10.906Z,34.11
2023-03-29T18:10:40.105Z,33.79
2023-03-29T18:13:13.768Z,33.82
2023-03-29T18:15:45.121Z,34.18
2023-03-29T18:18:13.863Z,33.82
2023-03-29T18:20:45.296Z,33.11
2023-03-29T18:23:13.007Z,33.44
2023-03-29T18:25:42.166Z,34.12
2023-03-29T18:28:11.510Z,34.10
2023-03-29T18:30:40.095Z,34.36
2023-03-29T18:33:08.805Z,34.36
2023-03-29T18:35:37.501Z,34.69
2023-03-29T18:38:06.671Z,34.72
2023-03-29T18:40:35.268Z,35.12
2023-03-29T18:43:03.795Z,34.87
2023-03-29T18:45:32.401Z,34.88
2023-03-29T18:48:02.131Z,35.07
2023-03-29T18:50:29.969Z,34.88
2023-03-29T18:52:58.007Z,35.35
2023-03-29T18:55:25.831Z,35.53
2023-03-29T18:57:53.818Z,35.40
2023-03-29T19:00:22.955Z,35.31
2023-03-29T19:02:51.628Z,34.88
2023-03-29T19:05:20.305Z,34.55
2023-03-29T19:07:48.245Z,34.65
2023-03-29T19:10:16.697Z,35.22
2023-03-29T19:12:44.745Z,35.20
2023-03-29T19:15:13.032Z,35.45
2023-03-29T19:17:41.578Z,34.84
2023-03-29T19:20:10.253Z,35.80
2023-03-29T19:22:38.630Z,35.71
2023-03-29T19:25:07.733Z,35.89
2023-03-29T19:27:36.579Z,36.14
2023-03-29T19:30:10.940Z,36.06
2023-03-29T19:32:39.547Z,36.21
2023-03-29T19:35:09.845Z,36.47
2023-03-29T19:37:43.023Z,36.34
2023-03-29T19:40:12.304Z,36.34
2023-03-29T19:42:41.636Z,35.79
2023-03-29T19:45:10.836Z,35.69
2023-03-29T19:47:38.782Z,35.84
2023-03-29T19:50:07.306Z,36.24
2023-03-29T19:52:36.048Z,36.32
2023-03-29T19:55:06.590Z,36.45
2023-03-29T19:57:34.437Z,36.90
2023-03-29T20:00:04.183Z,37.36
2023-03-29T20:02:31.555Z,37.62
2023-03-29T20:04:59.418Z,37.57
2023-03-29T20:07:27.187Z,37.92
2023-03-29T20:09:54.945Z,37.89
2023-03-29T20:12:23.853Z,38.14
2023-03-29T20:14:51.944Z,38.31
2023-03-29T20:17:19.831Z,39.08
2023-03-29T20:19:48.672Z,38.45
2023-03-29T20:22:16.486Z,38.89
2023-03-29T20:24:45.547Z,38.85
2023-03-29T20:27:15.929Z,39.01
2023-03-29T20:29:43.669Z,39.46
2023-03-29T20:32:11.661Z,40.05
2023-03-29T20:34:39.576Z,40.10
2023-03-29T20:37:07.636Z,40.64
2023-03-29T20:39:35.836Z,41.62
2023-03-29T20:42:04.539Z,42.66
2023-03-29T20:44:35.240Z,43.04
2023-03-29T20:47:08.399Z,43.71
2023-03-29T20:49:38.381Z,45.11
2023-03-29T20:52:24.470Z,43.91
2023-03-29T20:54:51.539Z,44.08
2023-03-29T20:57:21.001Z,44.55
2023-03-29T20:59:49.500Z,44.48
2023-03-29T21:02:20.956Z,44.75
2023-03-29T21:04:52.529Z,44.80
2023-03-29T21:07:21.999Z,44.12
2023-03-29T21:09:50.654Z,44.50
2023-03-29T21:12:20.358Z,43.67
2023-03-29T21:14:47.679Z,43.53
2023-03-29T21:17:15.437Z,44.02
2023-03-29T21:19:43.195Z,43.21
2023-03-29T21:22:13.821Z,44.91
2023-03-29T21:24:40.786Z,45.80
2023-03-29T21:27:08.506Z,47.03
2023-03-29T21:29:36.920Z,48.03
2023-03-29T21:32:04.903Z,48.57
2023-03-29T21:34:31.757Z,49.18
2023-03-29T21:37:01.608Z,49.07
2023-03-29T21:39:28.695Z,49.23
2023-03-29T21:41:56.187Z,49.24
2023-03-29T21:44:26.328Z,49.14
2023-03-29T21:46:56.189Z,49.09
2023-03-29T21:49:23.168Z,48.92
2023-03-29T21:51:51.564Z,48.56
2023-03-29T21:54:18.759Z,48.47
2023-03-29T21:56:47.813Z,47.65
2023-03-29T21:59:14.753Z,46.96
2023-03-29T22:01:42.530Z,46.76
2023-03-29T22:04:11.707Z,46.66
2023-03-29T22:06:41.942Z,47.65
2023-03-29T22:09:11.248Z,47.36
2023-03-29T22:11:38.952Z,47.03
2023-03-29T22:14:08.048Z,46.75
2023-03-29T22:16:37.586Z,46.73
2023-03-29T22:19:06.546Z,46.00
2023-03-29T22:21:37.336Z,46.28
2023-03-29T22:24:08.617Z,46.59
2023-03-29T22:26:38.141Z,45.89
2023-03-29T22:29:06.116Z,46.29
2023-03-29T22:31:33.266Z,46.69
2023-03-29T22:34:02.892Z,47.01
2023-03-29T22:36:31.242Z,47.45
2023-03-29T22:39:01.058Z,47.70
2023-03-29T22:41:28.973Z,47.74
2023-03-29T22:43:58.893Z,47.96
2023-03-29T22:46:28.095Z,47.12
2023-03-29T22:48:57.059Z,47.32
2023-03-29T22:51:26.311Z,47.77
2023-03-29T22:53:54.132Z,47.53
2023-03-29T22:56:22.122Z,47.79
2023-03-29T22:58:49.254Z,48.50
2023-03-29T23:01:17.083Z,48.58
2023-03-29T23:03:44.216Z,49.26
2023-03-29T23:06:13.930Z,49.68
2023-03-29T23:08:42.751Z,49.98
2023-03-29T23:11:11.639Z,49.89
2023-03-29T23:13:39.908Z,50.46
2023-03-29T23:16:08.119Z,50.09
2023-03-29T23:18:38.756Z,50.53
2023-03-29T23:21:07.637Z,50.62
2023-03-29T23:23:37.593Z,50.63
2023-03-29T23:26:05.931Z,51.05
2023-03-29T23:28:34.879Z,51.09
2023-03-29T23:31:06.790Z,50.85
2023-03-29T23:33:36.079Z,50.81
2023-03-29T23:36:06.389Z,50.53
2023-03-29T23:38:37.310Z,50.90
2023-03-29T23:41:08.598Z,50.84
2023-03-29T23:43:40.703Z,51.03
2023-03-29T23:46:11.194Z,51.01
2023-03-29T23:48:39.286Z,50.70
2023-03-29T23:51:08.319Z,50.78
2023-03-29T23:53:38.323Z,50.76
2023-03-29T23:56:05.977Z,50.05
2023-03-29T23:58:36.930Z,50.36
